createdAt,value
2023-02-19T00:04:19.013Z,36.4
2023-02-19T00:10:24.198Z,36.5
2023-02-19T00:16:29.508Z,36.4
2023-02-19T00:22:34.682Z,36.5
2023-02-19T00:28:40.464Z,36.5
2023-02-19T00:34:45.831Z,36.5
2023-02-19T00:40:50.982Z,36.4
2023-02-19T00:46:56.027Z,36.6
2023-02-19T00:53:01.193Z,36.5
2023-02-19T00:59:06.957Z,36.4
2023-02-19T01:05:12.453Z,36.5
2023-02-19T01:11:18.426Z,36.5
2023-02-19T01:17:23.871Z,36.5
2023-02-19T01:23:28.976Z,36.5
2023-02-19T01:29:33.776Z,36.5
2023-02-19T01:35:38.737Z,36.6
2023-02-19T01:41:44.251Z,36.7
2023-02-19T01:47:49.638Z,36.6
2023-02-19T01:53:55.039Z,36.6
2023-02-19T02:00:00.018Z,36.6
2023-02-19T02:06:06.130Z,36.6
2023-02-19T02:12:11.177Z,36.7
2023-02-19T02:18:16.516Z,36.6
2023-02-19T02:24:22.275Z,36.7
2023-02-19T02:30:27.832Z,36.6
2023-02-19T02:36:33.017Z,36.8
2023-02-19T02:42:38.190Z,36.7
2023-02-19T02:48:43.450Z,36.7
2023-02-19T02:54:49.012Z,36.8
2023-02-19T03:00:54.349Z,36.8
2023-02-19T03:07:00.414Z,36.8
2023-02-19T03:13:05.421Z,37
2023-02-19T03:19:11.188Z,37
2023-02-19T03:25:17.338Z,37.1
2023-02-19T03:31:23.131Z,37.1
2023-02-19T03:37:29.113Z,37.2
2023-02-19T03:43:35.699Z,37.4
2023-02-19T03:49:41.050Z,37.3
2023-02-19T03:55:46.501Z,37.4
2023-02-19T04:01:51.902Z,37.4
2023-02-19T04:07:57.347Z,37.5
2023-02-19T04:14:03.159Z,37.8
2023-02-19T04:20:10.145Z,37.8
2023-02-19T04:26:15.385Z,37.8
2023-02-19T04:32:20.937Z,38
2023-02-19T04:38:26.874Z,38
2023-02-19T04:44:32.452Z,37.9
2023-02-19T04:50:38.012Z,38
2023-02-19T04:56:43.974Z,37.9
2023-02-19T05:02:49.415Z,38.3
2023-02-19T05:08:55.147Z,38.1
2023-02-19T05:15:00.929Z,38
2023-02-19T05:21:07.310Z,38.1
2023-02-19T05:27:13.056Z,38.3
2023-02-19T05:33:19.060Z,37.7
2023-02-19T05:39:24.510Z,37.4
2023-02-19T05:45:29.459Z,37.3
2023-02-19T05:51:34.961Z,37.3
2023-02-19T05:57:41.873Z,37.6
2023-02-19T06:03:48.882Z,37.2
2023-02-19T06:09:54.817Z,37.3
2023-02-19T06:15:59.355Z,37.4
2023-02-19T06:22:06.287Z,37.3
2023-02-19T06:28:11.709Z,37.3
2023-02-19T06:34:16.830Z,37.3
2023-02-19T06:40:23.209Z,37.4
2023-02-19T06:46:29.012Z,37.4
2023-02-19T06:52:33.965Z,37.3
2023-02-19T06:58:39.110Z,37.3
2023-02-19T07:04:44.741Z,37.3
2023-02-19T07:10:50.447Z,37.4
2023-02-19T07:16:56.234Z,37.4
2023-02-19T07:23:01.254Z,37.4
2023-02-19T07:29:06.354Z,37.5
2023-02-19T07:35:11.650Z,37.5
2023-02-19T07:41:17.561Z,37.6
2023-02-19T07:47:22.504Z,37.4
2023-02-19T07:53:27.290Z,37.6
2023-02-19T07:59:32.968Z,37.7
2023-02-19T08:05:38.011Z,37.7
2023-02-19T08:11:43.137Z,37.6
2023-02-19T08:17:48.514Z,37.7
2023-02-19T08:23:54.299Z,37.7
2023-02-19T08:29:59.134Z,37.7
2023-02-19T08:36:05.388Z,38.1
2023-02-19T08:42:10.759Z,37.8
2023-02-19T08:48:15.756Z,38
2023-02-19T08:54:21.189Z,37.9
2023-02-19T09:00:26.342Z,37.7
2023-02-19T09:06:31.675Z,37.8
2023-02-19T09:12:37.648Z,37.9
2023-02-19T09:18:43.260Z,38
2023-02-19T09:24:48.400Z,38.1
2023-02-19T09:30:53.562Z,38.3
2023-02-19T09:36:58.896Z,38
2023-02-19T09:43:05.474Z,38.6
2023-02-19T09:49:11.217Z,38.2
2023-02-19T09:55:17.089Z,38.4
2023-02-19T10:01:22.808Z,38.1
2023-02-19T10:07:28.227Z,38.4
2023-02-19T10:13:33.317Z,38.3
2023-02-19T10:19:39.117Z,38.2
2023-02-19T10:25:44.238Z,38.1
2023-02-19T10:31:50.343Z,38.2
2023-02-19T10:37:55.634Z,38.1
2023-02-19T10:44:01.421Z,38.2
2023-02-19T10:50:07.829Z,38.1
2023-02-19T10:56:13.549Z,37.8
2023-02-19T11:02:19.033Z,37.9
2023-02-19T11:08:24.185Z,37.8
2023-02-19T11:14:30.358Z,37.7
2023-02-19T11:20:35.612Z,37.6
2023-02-19T11:26:41.267Z,37.6
2023-02-19T11:32:46.541Z,37.7
2023-02-19T11:38:51.589Z,37.5
2023-02-19T11:44:57.087Z,37.5
2023-02-19T11:51:02.717Z,37.5
2023-02-19T11:57:08.027Z,37.4
2023-02-19T12:03:13.070Z,37.6
2023-02-19T12:09:18.971Z,37.5
2023-02-19T12:15:24.209Z,37.4
2023-02-19T12:21:29.585Z,37.3
2023-02-19T12:27:35.732Z,37.2
2023-02-19T12:33:41.458Z,37.3
2023-02-19T12:39:46.669Z,37.2
2023-02-19T12:45:52.683Z,37.1
2023-02-19T12:51:57.557Z,37.1
2023-02-19T12:58:04.297Z,37
2023-02-19T13:04:09.997Z,37
2023-02-19T13:10:15.930Z,36.9
2023-02-19T13:16:22.401Z,37
2023-02-19T13:22:28.276Z,36.9
2023-02-19T13:28:34.354Z,36.9
2023-02-19T13:34:39.542Z,36.8
2023-02-19T13:40:45.206Z,36.7
2023-02-19T13:46:50.441Z,36.7
2023-02-19T13:52:56.358Z,36.7
2023-02-19T13:59:01.780Z,36.6
2023-02-19T14:05:06.887Z,36.6
2023-02-19T14:11:13.642Z,36.6
2023-02-19T14:17:19.461Z,36.6
2023-02-19T14:23:25.018Z,36.6
2023-02-19T14:29:31.289Z,36.6
2023-02-19T14:35:36.670Z,36.6
2023-02-19T14:41:42.341Z,36.5
2023-02-19T14:47:47.928Z,36.6
2023-02-19T14:53:54.012Z,36.6
2023-02-19T14:59:59.323Z,36.5
2023-02-19T15:06:04.915Z,36.5
2023-02-19T15:12:10.431Z,36.5
2023-02-19T15:18:15.643Z,36.5
2023-02-19T15:24:21.619Z,36.4
2023-02-19T15:30:27.663Z,36.4
2023-02-19T15:36:33.660Z,36.4
2023-02-19T15:42:39.329Z,36.3
2023-02-19T15:48:44.890Z,36.3
2023-02-19T15:54:50.048Z,36.3
2023-02-19T16:00:55.638Z,36.2
2023-02-19T16:07:01.177Z,36.2
2023-02-19T16:13:07.157Z,36.2
2023-02-19T16:19:12.931Z,36.1
2023-02-19T16:25:18.299Z,36.1
2023-02-19T16:31:24.701Z,36.1
2023-02-19T16:37:30.294Z,36
2023-02-19T16:43:36.095Z,36
2023-02-19T16:49:41.851Z,36
2023-02-19T16:55:47.075Z,35.9
2023-02-19T17:01:52.174Z,35.9
2023-02-19T17:07:57.767Z,35.9
2023-02-19T17:14:03.166Z,36
2023-02-19T17:20:08.696Z,35.9
2023-02-19T17:26:14.086Z,35.9
2023-02-19T17:32:20.753Z,35.9
2023-02-19T17:38:25.998Z,35.9
2023-02-19T17:44:31.812Z,35.9
2023-02-19T17:50:37.409Z,35.8
2023-02-19T17:56:42.962Z,35.8
2023-02-19T18:02:48.492Z,35.8
2023-02-19T18:08:53.855Z,35.8
2023-02-19T18:14:59.707Z,35.8
2023-02-19T18:21:04.773Z,35.8
2023-02-19T18:27:10.368Z,35.8
2023-02-19T18:33:16.595Z,35.8
2023-02-19T18:39:21.821Z,35.8
2023-02-19T18:45:27.168Z,35.8
2023-02-19T18:51:32.638Z,35.8
2023-02-19T18:57:38.431Z,35.7
2023-02-19T19:03:43.805Z,35.8
2023-02-19T19:09:49.795Z,35.7
2023-02-19T19:15:55.599Z,35.8
2023-02-19T19:22:00.980Z,35.7
2023-02-19T19:28:08.609Z,35.7
2023-02-19T19:34:14.387Z,35.7
2023-02-19T19:40:19.683Z,35.7
2023-02-19T19:46:25.965Z,35.7
2023-02-19T19:52:31.660Z,35.7
2023-02-19T19:58:37.202Z,35.7
2023-02-19T20:04:42.456Z,35.7
2023-02-19T20:10:48.565Z,35.7
2023-02-19T20:16:53.802Z,35.7
2023-02-19T20:22:58.949Z,35.7
2023-02-19T20:29:04.549Z,35.7
2023-02-19T20:35:10.289Z,35.7
2023-02-19T20:41:16.648Z,35.7
2023-02-19T20:47:22.025Z,35.7
2023-02-19T20:53:27.045Z,35.7
2023-02-19T20:59:32.372Z,35.7
2023-02-19T21:05:37.964Z,35.7
2023-02-19T21:11:42.920Z,35.8
2023-02-19T21:17:48.345Z,35.8
2023-02-19T21:23:53.867Z,35.7
2023-02-19T21:29:58.797Z,35.8
2023-02-19T21:36:04.730Z,35.8
2023-02-19T21:42:09.903Z,35.8
2023-02-19T21:48:15.465Z,35.8
2023-02-19T21:54:20.941Z,35.8
2023-02-19T22:00:25.846Z,35.8
2023-02-19T22:06:33.010Z,35.8
2023-02-19T22:12:38.775Z,35.8
2023-02-19T22:18:44.551Z,35.8
2023-02-19T22:24:50.322Z,35.8
2023-02-19T22:30:55.748Z,35.8
2023-02-19T22:37:00.529Z,35.8
2023-02-19T22:43:05.851Z,35.8
2023-02-19T22:49:11.038Z,35.8
2023-02-19T22:55:16.756Z,35.8
2023-02-19T23:01:22.543Z,35.8
2023-02-19T23:07:28.309Z,35.8
2023-02-19T23:13:33.931Z,35.8
2023-02-19T23:19:40.092Z,35.8
2023-02-19T23:25:46.047Z,35.9
2023-02-19T23:31:51.344Z,35.9
2023-02-19T23:37:56.828Z,35.9
2023-02-19T23:44:02.739Z,35.9
2023-02-19T23:50:08.370Z,35.9
2023-02-19T23:56:14.996Z,35.9
